createdAt,value
2023-02-15T00:10:58.621Z,-0.7
2023-02-15T00:22:58.643Z,-0.8
2023-02-15T00:34:58.613Z,-0.8
2023-02-15T00:46:58.846Z,-0.8
2023-02-15T00:58:58.687Z,-0.8
2023-02-15T01:10:58.613Z,-0.9
2023-02-15T01:22:58.673Z,-0.9
2023-02-15T01:34:58.701Z,-0.9
2023-02-15T01:46:58.746Z,-0.9
2023-02-15T01:58:58.743Z,-1.0
2023-02-15T02:10:58.812Z,-1.0
2023-02-15T02:22:58.648Z,-1.1
2023-02-15T02:34:58.680Z,-1.1
2023-02-15T02:46:58.710Z,-1.2
2023-02-15T02:58:58.662Z,-1.3
2023-02-15T03:10:58.619Z,-1.3
2023-02-15T03:22:58.661Z,-1.4
2023-02-15T03:34:58.638Z,-1.4
2023-02-15T03:46:58.648Z,-1.5
2023-02-15T03:58:58.718Z,-1.5
2023-02-15T04:10:58.621Z,-1.6
2023-02-15T04:22:58.613Z,-1.6
2023-02-15T04:34:58.705Z,-1.7
2023-02-15T04:46:58.620Z,-1.7
2023-02-15T04:58:58.742Z,-1.7
2023-02-15T05:10:58.678Z,-1.7
2023-02-15T05:22:58.610Z,-1.7
2023-02-15T05:34:58.704Z,-1.7
2023-02-15T05:46:58.680Z,-1.9
2023-02-15T05:58:58.634Z,-1.8
2023-02-15T06:10:58.706Z,-1.9
2023-02-15T06:22:58.761Z,-1.9
2023-02-15T06:34:58.627Z,-1.9
2023-02-15T06:46:58.631Z,-2.0
2023-02-15T06:58:58.651Z,-2.1
2023-02-15T07:10:58.637Z,-2.0
2023-02-15T07:22:58.668Z,-1.8
2023-02-15T07:34:58.704Z,-1.7
2023-02-15T07:46:58.681Z,-1.7
2023-02-15T07:58:58.693Z,-1.5
2023-02-15T08:10:58.616Z,-1.6
2023-02-15T08:22:58.702Z,-1.2
2023-02-15T08:34:58.729Z,-1.2
2023-02-15T08:46:58.703Z,-0.7
2023-02-15T08:58:58.663Z,-0.5
2023-02-15T09:10:58.699Z,-0.4
2023-02-15T09:22:59.974Z,0.1
2023-02-15T09:34:58.646Z,0.3
2023-02-15T09:46:58.625Z,0.7
2023-02-15T09:58:59.052Z,0.9
2023-02-15T10:10:58.629Z,1.4
2023-02-15T10:22:59.786Z,1.6
2023-02-15T10:34:58.716Z,2.3
2023-02-15T10:46:58.619Z,2.6
2023-02-15T10:59:00.705Z,2.9
2023-02-15T11:10:58.619Z,3.3
2023-02-15T11:22:58.702Z,3.9
2023-02-15T11:34:59.091Z,4.2
2023-02-15T11:46:58.673Z,4.6
2023-02-15T11:58:58.704Z,5.0
2023-02-15T12:10:58.619Z,5.8
2023-02-15T12:22:58.622Z,6.7
2023-02-15T12:35:01.309Z,6.6
2023-02-15T12:46:58.699Z,6.8
2023-02-15T12:58:58.706Z,7.5
2023-02-15T13:10:58.633Z,7.7
2023-02-15T13:22:58.664Z,7.9
2023-02-15T13:34:58.735Z,8.0
2023-02-15T13:46:58.661Z,8.7
2023-02-15T13:58:58.717Z,8.9
2023-02-15T14:10:58.620Z,8.7
2023-02-15T14:22:58.651Z,8.5
2023-02-15T14:34:58.705Z,8.6
2023-02-15T14:46:58.664Z,8.7
2023-02-15T14:58:58.695Z,8.8
2023-02-15T15:10:58.618Z,8.7
2023-02-15T15:22:58.610Z,8.4
2023-02-15T15:34:58.677Z,7.7
2023-02-15T15:46:58.624Z,7.3
2023-02-15T15:58:58.682Z,7.1
2023-02-15T16:10:58.729Z,6.8
2023-02-15T16:22:58.617Z,6.7
2023-02-15T16:34:58.688Z,6.4
2023-02-15T16:46:58.790Z,5.4
2023-02-15T16:58:58.716Z,4.3
2023-02-15T17:10:58.613Z,4.0
2023-02-15T17:22:58.617Z,3.7
2023-02-15T17:34:58.659Z,3.6
2023-02-15T17:46:58.617Z,3.0
2023-02-15T17:58:58.692Z,2.7
2023-02-15T18:10:58.616Z,2.9
2023-02-15T18:22:58.702Z,2.9
2023-02-15T18:34:58.737Z,2.8
2023-02-15T18:46:58.668Z,2.6
2023-02-15T18:58:58.625Z,3.0
2023-02-15T19:10:58.647Z,3.4
2023-02-15T19:22:58.721Z,3.6
2023-02-15T19:34:58.693Z,3.6
2023-02-15T19:46:58.705Z,3.6
2023-02-15T19:58:58.708Z,3.5
2023-02-15T20:10:58.620Z,2.9
2023-02-15T20:22:58.626Z,3.1
2023-02-15T20:34:58.623Z,3.3
2023-02-15T20:46:58.817Z,1.6
2023-02-15T20:58:58.744Z,1.3
2023-02-15T21:11:00.702Z,0.5
2023-02-15T21:22:58.692Z,1.2
2023-02-15T21:34:58.681Z,1.3
2023-02-15T21:46:58.728Z,1.6
2023-02-15T21:58:58.619Z,0.3
2023-02-15T22:10:58.626Z,0.0
2023-02-15T22:22:58.705Z,0.1
2023-02-15T22:34:58.702Z,0.8
2023-02-15T22:46:58.616Z,0.3
2023-02-15T22:58:58.670Z,0.7
2023-02-15T23:10:58.633Z,0.4
2023-02-15T23:22:58.619Z,0.0
2023-02-15T23:34:58.658Z,-0.4
2023-02-15T23:46:58.709Z,-0.6
2023-02-15T23:58:58.613Z,-0.7
